createdAt,value
2022-12-25T00:01:32.356Z,3.87
2022-12-25T00:03:59.536Z,4.00
2022-12-25T00:06:27.263Z,3.93
2022-12-25T00:08:54.080Z,5.17
2022-12-25T00:11:21.306Z,4.90
2022-12-25T00:13:49.092Z,5.40
2022-12-25T00:16:19.983Z,5.43
2022-12-25T00:18:47.893Z,6.03
2022-12-25T00:21:16.286Z,5.30
2022-12-25T00:23:43.438Z,5.83
2022-12-25T00:26:13.519Z,5.67
2022-12-25T00:28:40.695Z,6.77
2022-12-25T00:31:12.421Z,5.67
2022-12-25T00:33:41.704Z,6.40
2022-12-25T00:36:10.171Z,6.43
2022-12-25T00:38:39.120Z,6.00
2022-12-25T00:41:18.890Z,6.20
2022-12-25T00:43:45.716Z,6.30
2022-12-25T00:46:13.897Z,6.73
2022-12-25T00:48:42.081Z,7.23
2022-12-25T00:51:12.368Z,7.07
2022-12-25T00:53:39.988Z,7.20
2022-12-25T00:56:08.035Z,6.93
2022-12-25T00:58:36.764Z,6.90
2022-12-25T01:01:04.470Z,7.17
2022-12-25T01:03:31.689Z,7.60
2022-12-25T01:06:01.077Z,6.73
2022-12-25T01:08:30.504Z,7.10
2022-12-25T01:11:02.227Z,7.00
2022-12-25T01:13:32.959Z,7.20
2022-12-25T01:15:59.957Z,7.97
2022-12-25T01:18:27.123Z,8.03
2022-12-25T01:20:54.049Z,8.50
2022-12-25T01:23:20.941Z,8.30
2022-12-25T01:25:47.948Z,8.87
2022-12-25T01:28:16.690Z,9.33
2022-12-25T01:30:50.898Z,9.37
2022-12-25T01:33:18.467Z,10.53
2022-12-25T01:35:48.301Z,9.20
2022-12-25T01:38:15.457Z,8.97
2022-12-25T01:40:42.613Z,10.17
2022-12-25T01:43:26.901Z,9.07
2022-12-25T01:45:54.270Z,9.70
2022-12-25T01:48:29.374Z,9.80
2022-12-25T01:51:02.097Z,10.07
2022-12-25T01:53:30.056Z,9.73
2022-12-25T01:56:07.337Z,9.20
2022-12-25T01:58:35.081Z,9.90
2022-12-25T02:01:02.230Z,9.33
2022-12-25T02:03:29.388Z,10.20
2022-12-25T02:05:57.179Z,9.30
2022-12-25T02:08:24.528Z,10.23
2022-12-25T02:10:51.507Z,10.00
2022-12-25T02:13:20.649Z,9.93
2022-12-25T02:16:08.682Z,10.77
2022-12-25T02:18:52.101Z,10.40
2022-12-25T02:21:22.009Z,10.93
2022-12-25T02:23:57.918Z,10.47
2022-12-25T02:27:03.231Z,10.20
2022-12-25T02:29:57.717Z,9.70
2022-12-25T02:32:32.861Z,11.17
2022-12-25T02:35:13.157Z,9.70
2022-12-25T02:38:03.945Z,10.87
2022-12-25T02:40:44.770Z,10.77
2022-12-25T02:43:41.947Z,11.10
2022-12-25T02:46:34.753Z,11.13
2022-12-25T02:49:24.496Z,11.37
2022-12-25T02:52:16.375Z,11.60
2022-12-25T02:55:12.126Z,10.10
2022-12-25T02:58:03.573Z,11.20
2022-12-25T03:00:54.109Z,10.47
2022-12-25T03:03:43.427Z,11.23
2022-12-25T03:06:47.217Z,10.53
2022-12-25T03:09:40.005Z,10.43
2022-12-25T03:12:29.748Z,11.67
2022-12-25T03:15:15.058Z,10.67
2022-12-25T03:17:42.545Z,11.67
2022-12-25T03:20:28.786Z,11.33
2022-12-25T03:23:15.421Z,12.13
2022-12-25T03:26:00.712Z,13.70
2022-12-25T03:28:27.647Z,12.47
2022-12-25T03:31:12.799Z,12.47
2022-12-25T03:34:30.531Z,11.53
2022-12-25T03:37:24.634Z,12.60
2022-12-25T03:40:29.346Z,11.63
2022-12-25T03:43:31.507Z,11.03
2022-12-25T03:46:22.252Z,11.20
2022-12-25T03:49:14.681Z,10.90
2022-12-25T03:52:02.038Z,11.40
2022-12-25T03:54:52.244Z,11.93
2022-12-25T03:57:37.449Z,11.93
2022-12-25T04:00:23.318Z,12.90
2022-12-25T04:03:08.919Z,12.37
2022-12-25T04:05:54.306Z,12.60
2022-12-25T04:08:39.767Z,11.97
2022-12-25T04:11:25.122Z,12.30
2022-12-25T04:14:10.385Z,13.07
2022-12-25T04:16:55.779Z,12.77
2022-12-25T04:19:40.847Z,11.83
2022-12-25T04:22:26.196Z,12.73
2022-12-25T04:25:11.590Z,12.87
2022-12-25T04:27:56.631Z,12.93
2022-12-25T04:30:41.983Z,12.43
2022-12-25T04:33:27.345Z,13.13
2022-12-25T04:36:15.298Z,13.93
2022-12-25T04:38:42.945Z,11.97
2022-12-25T04:41:12.383Z,12.67
2022-12-25T04:43:39.122Z,12.77
2022-12-25T04:46:06.412Z,13.00
2022-12-25T04:48:35.048Z,11.83
2022-12-25T04:51:20.085Z,12.63
2022-12-25T04:53:49.029Z,12.70
2022-12-25T04:56:16.271Z,11.80
2022-12-25T04:58:43.315Z,12.73
2022-12-25T05:01:10.909Z,11.93
2022-12-25T05:03:38.751Z,11.93
2022-12-25T05:06:06.833Z,11.90
2022-12-25T05:08:36.044Z,12.03
2022-12-25T05:11:13.131Z,11.60
2022-12-25T05:13:40.787Z,12.00
2022-12-25T05:16:09.385Z,11.73
2022-12-25T05:18:36.423Z,11.23
2022-12-25T05:21:04.147Z,11.50
2022-12-25T05:23:31.675Z,11.10
2022-12-25T05:25:58.756Z,11.70
2022-12-25T05:28:25.506Z,11.10
2022-12-25T05:30:52.289Z,11.57
2022-12-25T05:33:19.195Z,10.23
2022-12-25T05:35:45.997Z,11.27
2022-12-25T05:38:12.753Z,11.10
2022-12-25T05:40:41.114Z,10.90
2022-12-25T05:43:08.112Z,11.40
2022-12-25T05:45:35.471Z,10.50
2022-12-25T05:48:02.273Z,11.33
2022-12-25T05:50:29.220Z,11.53
2022-12-25T05:52:56.415Z,10.87
2022-12-25T05:55:23.807Z,12.00
2022-12-25T05:57:50.662Z,10.63
2022-12-25T06:00:18.040Z,10.63
2022-12-25T06:02:45.457Z,10.30
2022-12-25T06:05:12.775Z,10.40
2022-12-25T06:07:39.495Z,9.93
2022-12-25T06:10:07.459Z,10.37
2022-12-25T06:12:34.682Z,10.07
2022-12-25T06:15:01.957Z,10.20
2022-12-25T06:17:31.357Z,10.20
2022-12-25T06:19:58.534Z,9.90
2022-12-25T06:22:30.733Z,9.30
2022-12-25T06:24:59.103Z,9.77
2022-12-25T06:27:26.632Z,9.83
2022-12-25T06:29:53.545Z,8.90
2022-12-25T06:32:20.413Z,10.30
2022-12-25T06:34:51.951Z,9.00
2022-12-25T06:37:19.462Z,8.60
2022-12-25T06:39:47.532Z,9.43
2022-12-25T06:42:14.542Z,9.67
2022-12-25T06:44:42.096Z,9.73
2022-12-25T06:47:09.169Z,9.53
2022-12-25T06:49:36.147Z,9.10
2022-12-25T06:52:06.675Z,8.70
2022-12-25T06:54:38.179Z,9.13
2022-12-25T06:59:55.179Z,9.37
2022-12-25T07:02:23.929Z,9.37
2022-12-25T07:04:51.666Z,8.37
2022-12-25T07:07:18.408Z,9.20
2022-12-25T07:09:45.060Z,9.00
2022-12-25T07:12:11.781Z,9.20
2022-12-25T07:14:38.532Z,9.80
2022-12-25T07:17:05.613Z,8.83
2022-12-25T07:19:32.435Z,9.33
2022-12-25T07:21:59.228Z,9.00
2022-12-25T07:24:26.287Z,8.23
2022-12-25T07:26:53.062Z,9.53
2022-12-25T07:29:19.859Z,9.13
2022-12-25T07:31:47.164Z,8.80
2022-12-25T07:34:14.809Z,8.93
2022-12-25T07:36:41.769Z,8.03
2022-12-25T07:39:11.243Z,8.47
2022-12-25T07:41:38.110Z,8.67
2022-12-25T07:44:05.444Z,8.43
2022-12-25T07:46:32.184Z,8.97
2022-12-25T07:48:58.923Z,8.70
2022-12-25T07:51:25.556Z,7.87
2022-12-25T07:53:52.958Z,8.90
2022-12-25T07:56:20.461Z,8.60
2022-12-25T07:58:49.030Z,7.77
2022-12-25T08:01:21.439Z,8.30
2022-12-25T08:04:00.408Z,7.83
2022-12-25T08:06:31.234Z,8.53
2022-12-25T08:09:02.323Z,7.73
2022-12-25T08:11:29.117Z,8.00
2022-12-25T08:13:55.795Z,8.43
2022-12-25T08:16:22.908Z,7.97
2022-12-25T08:24:16.189Z,7.80
2022-12-25T08:26:58.682Z,8.33
2022-12-25T08:29:30.045Z,7.90
2022-12-25T08:32:01.822Z,7.80
2022-12-25T08:45:23.400Z,7.50
2022-12-25T08:53:39.837Z,7.97
2022-12-25T08:56:07.675Z,7.20
2022-12-25T08:58:38.763Z,7.23
2022-12-25T09:01:40.720Z,7.23
2022-12-25T09:04:10.949Z,7.03
2022-12-25T09:06:46.659Z,7.67
2022-12-25T09:09:13.539Z,7.20
2022-12-25T09:11:40.276Z,7.23
2022-12-25T09:14:07.208Z,7.57
2022-12-25T09:16:33.952Z,7.63
2022-12-25T09:19:04.309Z,7.60
2022-12-25T09:21:31.023Z,6.70
2022-12-25T09:23:57.756Z,7.53
2022-12-25T09:26:24.341Z,7.40
2022-12-25T09:28:52.525Z,6.80
2022-12-25T09:31:21.281Z,7.17
2022-12-25T09:33:48.739Z,7.23
2022-12-25T09:36:15.802Z,6.93
2022-12-25T09:38:43.131Z,6.97
2022-12-25T09:41:31.061Z,7.43
2022-12-25T09:44:05.958Z,7.10
2022-12-25T09:46:41.108Z,6.97
2022-12-25T09:49:20.114Z,7.17
2022-12-25T09:51:53.777Z,7.00
2022-12-25T09:54:36.964Z,7.07
2022-12-25T09:57:04.115Z,7.53
2022-12-25T09:59:31.200Z,8.03
2022-12-25T10:02:19.736Z,7.40
2022-12-25T10:05:15.867Z,6.90
2022-12-25T10:10:51.058Z,7.53
2022-12-25T10:13:45.003Z,7.40
2022-12-25T10:16:27.022Z,6.90
2022-12-25T10:19:28.489Z,6.90
2022-12-25T10:22:01.808Z,6.67
2022-12-25T10:24:37.128Z,6.83
2022-12-25T10:27:08.713Z,6.70
2022-12-25T10:29:43.066Z,6.73
2022-12-25T10:32:10.645Z,7.63
2022-12-25T10:34:42.501Z,6.70
2022-12-25T10:37:15.063Z,7.07
2022-12-25T10:39:46.622Z,7.20
2022-12-25T10:42:42.569Z,6.60
2022-12-25T10:45:12.539Z,6.60
2022-12-25T10:47:43.064Z,6.63
2022-12-25T10:50:21.311Z,6.97
2022-12-25T10:53:00.754Z,6.60
2022-12-25T10:55:29.594Z,7.23
2022-12-25T10:58:00.781Z,6.60
2022-12-25T11:00:33.240Z,6.43
2022-12-25T11:03:01.286Z,6.57
2022-12-25T11:05:33.788Z,7.03
2022-12-25T11:08:03.321Z,6.40
2022-12-25T11:10:44.506Z,7.60
2022-12-25T11:13:29.871Z,6.50
2022-12-25T11:16:14.826Z,6.17
2022-12-25T11:18:52.015Z,6.07
2022-12-25T11:21:40.932Z,6.43
2022-12-25T11:24:21.914Z,6.37
2022-12-25T11:26:53.619Z,6.30
2022-12-25T11:30:00.692Z,7.03
2022-12-25T11:32:38.260Z,7.03
2022-12-25T11:35:14.242Z,6.10
2022-12-25T11:38:01.106Z,7.23
2022-12-25T11:43:47.072Z,6.40
2022-12-25T11:46:24.296Z,6.63
2022-12-25T11:49:00.433Z,6.30
2022-12-25T11:51:33.425Z,6.47
2022-12-25T11:54:24.017Z,6.90
2022-12-25T11:56:51.265Z,6.77
2022-12-25T11:59:27.489Z,6.73
2022-12-25T12:01:54.409Z,6.40
2022-12-25T12:04:40.274Z,6.30
2022-12-25T12:07:19.404Z,6.57
2022-12-25T12:09:57.625Z,6.60
2022-12-25T12:13:15.227Z,6.50
2022-12-25T12:21:36.365Z,6.27
2022-12-25T12:24:16.767Z,6.60
2022-12-25T12:26:46.477Z,5.90
2022-12-25T12:29:48.393Z,5.83
2022-12-25T13:23:39.594Z,5.23
2022-12-25T13:34:17.627Z,5.27
2022-12-25T13:36:44.669Z,4.80
2022-12-25T13:44:52.161Z,5.33
2022-12-25T13:47:21.171Z,6.10
2022-12-25T13:49:49.583Z,5.40
2022-12-25T13:52:21.442Z,5.60
2022-12-25T13:55:14.871Z,4.93
2022-12-25T13:57:49.306Z,5.00
2022-12-25T14:00:22.489Z,5.07
2022-12-25T14:02:53.594Z,4.77
2022-12-25T14:05:28.129Z,5.13
2022-12-25T14:07:57.359Z,4.63
2022-12-25T14:10:27.725Z,5.10
2022-12-25T14:12:58.195Z,5.27
2022-12-25T14:15:25.875Z,4.80
2022-12-25T14:17:53.669Z,5.30
2022-12-25T14:20:38.291Z,6.30
2022-12-25T14:23:06.154Z,6.50
2022-12-25T14:25:43.248Z,5.87
2022-12-25T14:28:23.995Z,6.47
2022-12-25T14:30:54.686Z,6.60
2022-12-25T14:33:24.657Z,7.37
2022-12-25T14:35:52.770Z,7.10
2022-12-25T14:38:27.599Z,6.50
2022-12-25T14:41:05.563Z,7.50
2022-12-25T14:43:37.695Z,6.67
2022-12-25T14:46:09.293Z,6.40
2022-12-25T14:48:38.661Z,6.80
2022-12-25T14:51:31.678Z,6.80
2022-12-25T14:54:02.340Z,6.43
2022-12-25T14:56:33.323Z,6.97
2022-12-25T14:59:02.613Z,6.70
2022-12-25T15:01:34.326Z,6.53
2022-12-25T15:04:20.931Z,6.97
2022-12-25T15:07:09.666Z,7.20
2022-12-25T15:09:37.942Z,6.13
2022-12-25T15:12:07.297Z,7.40
2022-12-25T15:14:40.869Z,7.33
2022-12-25T15:17:12.420Z,8.00
2022-12-25T15:19:39.682Z,8.00
2022-12-25T15:22:06.732Z,8.33
2022-12-25T15:24:33.699Z,8.37
2022-12-25T15:27:01.046Z,8.27
2022-12-25T15:30:09.314Z,8.73
2022-12-25T15:32:24.632Z,8.30
2022-12-25T15:34:53.289Z,8.33
2022-12-25T15:37:20.719Z,8.97
2022-12-25T15:39:47.803Z,9.53
2022-12-25T15:42:18.343Z,9.00
2022-12-25T15:44:46.152Z,9.60
2022-12-25T15:47:18.242Z,9.40
2022-12-25T15:49:48.760Z,9.60
2022-12-25T15:52:21.371Z,9.60
2022-12-25T15:54:57.567Z,10.03
2022-12-25T15:57:29.386Z,10.47
2022-12-25T15:59:56.466Z,10.83
2022-12-25T16:02:23.494Z,10.80
2022-12-25T16:04:51.375Z,11.03
2022-12-25T16:07:29.682Z,11.17
2022-12-25T16:09:58.672Z,11.87
2022-12-25T16:12:26.008Z,11.70
2022-12-25T16:14:53.235Z,11.57
2022-12-25T16:17:20.445Z,12.27
2022-12-25T16:19:47.529Z,12.17
2022-12-25T16:22:26.004Z,12.23
2022-12-25T16:24:54.086Z,11.90
2022-12-25T16:27:43.498Z,11.47
2022-12-25T16:30:15.611Z,11.40
2022-12-25T16:32:44.202Z,11.20
2022-12-25T16:35:24.360Z,12.07
2022-12-25T16:37:52.525Z,11.50
2022-12-25T16:40:28.484Z,11.07
2022-12-25T16:45:53.819Z,11.90
2022-12-25T16:48:33.736Z,11.50
2022-12-25T16:51:03.506Z,11.73
2022-12-25T16:53:35.633Z,11.37
2022-12-25T16:56:25.061Z,10.83
2022-12-25T16:59:04.939Z,10.57
2022-12-25T17:01:52.929Z,10.53
2022-12-25T17:04:26.117Z,10.93
2022-12-25T17:06:53.742Z,10.43
2022-12-25T17:09:25.430Z,9.90
2022-12-25T17:11:56.871Z,9.60
2022-12-25T17:15:04.139Z,9.57
2022-12-25T17:17:59.608Z,9.53
2022-12-25T17:20:29.204Z,9.87
2022-12-25T17:22:56.237Z,10.27
2022-12-25T17:25:23.059Z,10.13
2022-12-25T17:27:50.822Z,10.17
2022-12-25T17:30:17.554Z,10.83
2022-12-25T17:32:44.217Z,10.33
2022-12-25T17:35:11.048Z,10.80
2022-12-25T17:37:37.724Z,10.03
2022-12-25T17:40:04.924Z,10.00
2022-12-25T17:42:31.791Z,10.03
2022-12-25T17:44:58.651Z,10.23
2022-12-25T17:47:26.402Z,10.03
2022-12-25T17:49:53.262Z,10.07
2022-12-25T17:52:20.092Z,10.13
2022-12-25T17:54:46.814Z,9.80
2022-12-25T17:57:14.284Z,9.90
2022-12-25T17:59:42.014Z,9.97
2022-12-25T18:02:09.233Z,9.70
2022-12-25T18:04:35.994Z,9.97
2022-12-25T18:07:03.536Z,10.27
2022-12-25T18:09:30.302Z,10.37
2022-12-25T18:11:56.983Z,11.30
2022-12-25T18:14:23.719Z,10.23
2022-12-25T18:16:50.625Z,10.60
2022-12-25T18:21:59.025Z,10.67
2022-12-25T18:24:25.727Z,10.43
2022-12-25T18:26:52.535Z,10.67
2022-12-25T18:29:19.389Z,10.17
2022-12-25T18:31:48.211Z,11.07
2022-12-25T18:34:17.164Z,11.33
2022-12-25T18:36:44.897Z,11.17
2022-12-25T18:39:13.383Z,11.07
2022-12-25T18:42:00.108Z,10.77
2022-12-25T18:44:26.835Z,11.60
2022-12-25T18:46:54.078Z,10.40
2022-12-25T18:49:21.343Z,10.87
2022-12-25T18:51:49.300Z,10.93
2022-12-25T18:54:16.023Z,12.47
2022-12-25T18:56:42.765Z,12.20
2022-12-25T18:59:09.800Z,13.60
2022-12-25T19:01:36.511Z,12.93
2022-12-25T19:04:05.579Z,13.60
2022-12-25T19:06:33.544Z,13.40
2022-12-25T19:09:00.922Z,15.57
2022-12-25T19:11:30.910Z,18.63
2022-12-25T19:13:57.737Z,19.23
2022-12-25T19:16:24.758Z,16.47
2022-12-25T19:18:51.534Z,15.10
2022-12-25T19:21:18.378Z,14.03
2022-12-25T19:23:45.369Z,13.07
2022-12-25T19:26:12.377Z,13.80
2022-12-25T19:28:39.691Z,13.30
2022-12-25T19:31:09.318Z,15.57
2022-12-25T19:33:38.815Z,14.83
2022-12-25T19:36:12.020Z,14.23
2022-12-25T19:38:39.151Z,13.60
2022-12-25T19:41:10.738Z,11.73
2022-12-25T19:43:39.766Z,12.30
2022-12-25T19:46:07.938Z,12.00
2022-12-25T19:48:36.091Z,11.63
2022-12-25T19:51:15.050Z,11.63
2022-12-25T19:53:41.956Z,10.60
2022-12-25T19:56:12.052Z,10.93
2022-12-25T19:58:44.347Z,11.37
2022-12-25T20:01:25.165Z,10.53
2022-12-25T20:03:53.181Z,10.30
2022-12-25T20:06:32.398Z,10.40
2022-12-25T20:12:59.915Z,10.00
2022-12-25T20:19:26.963Z,11.57
2022-12-25T20:55:05.872Z,12.53
2022-12-25T20:57:32.692Z,12.77
2022-12-25T20:59:59.675Z,12.87
2022-12-25T21:02:34.810Z,11.43
2022-12-25T21:05:04.696Z,11.67
2022-12-25T21:07:31.689Z,11.53
2022-12-25T21:09:59.556Z,11.57
2022-12-25T21:12:26.667Z,11.63
2022-12-25T21:14:54.233Z,10.80
2022-12-25T21:17:21.178Z,10.47
2022-12-25T21:19:48.064Z,10.77
2022-12-25T21:22:15.046Z,11.13
2022-12-25T21:24:41.979Z,11.03
2022-12-25T21:27:08.959Z,11.37
2022-12-25T21:29:35.878Z,12.07
2022-12-25T21:32:21.278Z,11.47
2022-12-25T21:34:48.150Z,10.87
2022-12-25T21:37:14.977Z,11.03
2022-12-25T21:39:42.214Z,10.37
2022-12-25T21:42:09.661Z,11.20
2022-12-25T21:44:36.621Z,10.77
2022-12-25T21:47:03.424Z,11.97
2022-12-25T21:49:48.591Z,11.83
2022-12-25T21:52:15.435Z,11.83
2022-12-25T21:54:42.355Z,12.53
2022-12-25T21:57:09.197Z,11.60
2022-12-25T21:59:36.416Z,12.40
2022-12-25T22:02:20.301Z,12.03
2022-12-25T22:04:48.372Z,12.13
2022-12-25T22:07:18.542Z,11.93
2022-12-25T22:09:50.312Z,12.43
2022-12-25T22:12:38.888Z,11.40
2022-12-25T22:15:08.202Z,13.10
2022-12-25T22:18:01.949Z,13.33
2022-12-25T22:20:35.081Z,13.73
2022-12-25T22:23:02.771Z,13.93
2022-12-25T22:25:30.123Z,12.87
2022-12-25T22:27:58.387Z,13.57
2022-12-25T22:30:28.191Z,13.47
2022-12-25T22:32:55.696Z,12.07
2022-12-25T22:35:22.717Z,12.27
2022-12-25T22:37:50.085Z,12.27
2022-12-25T22:40:19.543Z,12.23
2022-12-25T22:42:47.436Z,11.53
2022-12-25T22:45:15.663Z,11.50
2022-12-25T22:47:43.341Z,12.03
2022-12-25T22:50:12.600Z,11.87
2022-12-25T22:52:39.759Z,11.73
2022-12-25T22:55:09.019Z,11.50
2022-12-25T22:57:36.407Z,12.33
2022-12-25T23:00:06.356Z,13.33
2022-12-25T23:02:35.584Z,13.40
2022-12-25T23:05:03.747Z,12.97
2022-12-25T23:07:31.127Z,12.43
2022-12-25T23:09:57.934Z,12.20
2022-12-25T23:15:29.046Z,12.43
2022-12-25T23:18:14.588Z,12.67
2022-12-25T23:21:00.712Z,12.50
2022-12-25T23:23:46.285Z,10.83
2022-12-25T23:26:14.550Z,10.90
2022-12-25T23:29:01.285Z,10.93
2022-12-25T23:31:39.929Z,11.17
2022-12-25T23:34:08.348Z,12.20
2022-12-25T23:36:35.625Z,14.07
2022-12-25T23:39:09.421Z,14.97
2022-12-25T23:41:37.087Z,17.27
2022-12-25T23:44:12.447Z,15.47
2022-12-25T23:46:40.435Z,14.90
2022-12-25T23:49:07.763Z,15.93
2022-12-25T23:51:44.926Z,17.10
2022-12-25T23:54:17.755Z,15.57
2022-12-25T23:56:45.545Z,15.17
2022-12-25T23:59:13.503Z,14.37
